Time;durP1;ratioP1;P1;durP2;ratioP2;P2;SDS_P1;SDS_P2;PMS_P1;PMS_P2;Temp;Humidity;BMP_temperature;BMP_pressure;BME280_temperature;BME280_humidity;BME280_pressure;Samples;Min_cycle;Max_cycle;Signal;HPM_P1;HPM_P2
2024/01/13 00:02:05;;;;;;;0.77;0.30;;;-3.00;99.90;;;;;;21065572;28;20032;-43
2024/01/13 00:12:07;;;;;;;0.63;0.10;;;-3.00;99.90;;;;;;21079496;28;20036;-49
2024/01/13 00:22:09;;;;;;;0.25;0.10;;;-3.00;99.90;;;;;;21078755;28;20040;-44
2024/01/13 00:32:10;;;;;;;0.15;0.08;;;-2.70;99.90;;;;;;21058289;28;20047;-47
2024/01/13 00:42:12;;;;;;;0.10;0.00;;;-2.50;99.90;;;;;;21077458;28;20497;-43
2024/01/13 00:52:14;;;;;;;0.35;0.10;;;-2.40;99.90;;;;;;21076455;28;20051;-43
2024/01/13 01:02:16;;;;;;;0.05;0.00;;;-2.30;99.90;;;;;;21076019;28;20093;-42
2024/01/13 01:12:18;;;;;;;0.22;0.10;;;-2.20;99.90;;;;;;21074561;28;20039;-45
2024/01/13 01:22:20;;;;;;;0.20;0.10;;;-2.30;99.90;;;;;;21073411;28;20469;-44
2024/01/13 01:32:22;;;;;;;0.10;0.00;;;-2.20;99.90;;;;;;21073724;28;20048;-47
2024/01/13 01:42:23;;;;;;;0.10;0.00;;;-2.30;99.90;;;;;;21072276;28;20044;-42
2024/01/13 01:52:27;;;;;;;0.20;0.00;;;-2.40;99.90;;;;;;21053514;28;20085;-44
2024/01/13 02:02:29;;;;;;;0.00;0.00;;;-2.40;99.90;;;;;;21071749;28;20036;-43
2024/01/13 02:12:31;;;;;;;0.05;0.00;;;-2.40;99.90;;;;;;21069920;28;20039;-43
2024/01/13 02:22:33;;;;;;;0.00;0.00;;;-2.20;99.90;;;;;;21050754;28;20036;-44
2024/01/13 02:32:34;;;;;;;0.17;0.00;;;-2.20;99.90;;;;;;21068206;28;20744;-44
2024/01/13 02:42:36;;;;;;;0.00;0.00;;;-2.40;99.90;;;;;;21067953;28;20024;-43
2024/01/13 02:52:40;;;;;;;0.10;0.10;;;-2.30;99.90;;;;;;21065619;28;20448;-44
2024/01/13 03:02:41;;;;;;;0.45;0.10;;;-2.30;99.90;;;;;;21067457;28;20069;-46
2024/01/13 03:12:46;;;;;;;0.10;0.00;;;-2.20;99.90;;;;;;21067326;28;20043;-45
2024/01/13 03:22:48;;;;;;;0.30;0.10;;;-2.10;99.90;;;;;;21064300;28;20073;-43
2024/01/13 03:32:49;;;;;;;0.00;0.00;;;-1.80;99.30;;;;;;21064529;28;20052;-43
2024/01/13 03:42:51;;;;;;;0.20;0.10;;;-1.70;99.10;;;;;;21075140;28;20097;-43
2024/01/13 03:52:53;;;;;;;0.85;0.00;;;-1.70;98.90;;;;;;21081396;28;20040;-43
2024/01/13 04:02:56;;;;;;;0.35;0.10;;;-1.60;99.00;;;;;;21080948;28;20089;-46
2024/01/13 04:13:04;;;;;;;0.05;0.00;;;-1.90;99.70;;;;;;21080053;28;20035;-45
2024/01/13 04:23:05;;;;;;;0.47;0.17;;;-2.00;99.90;;;;;;21079175;28;20031;-44
2024/01/13 04:33:07;;;;;;;0.35;0.05;;;-2.20;99.90;;;;;;21078734;28;20493;-43
2024/01/13 04:43:09;;;;;;;0.20;0.10;;;-2.20;99.90;;;;;;21077569;28;20043;-43
2024/01/13 04:53:11;;;;;;;0.10;0.00;;;-2.20;99.90;;;;;;21075814;28;20036;-43
2024/01/13 05:03:13;;;;;;;0.65;0.10;;;-2.30;99.90;;;;;;21076336;28;20051;-43
2024/01/13 05:13:14;;;;;;;0.00;0.00;;;-2.50;99.90;;;;;;21075488;28;20059;-42
2024/01/13 05:23:16;;;;;;;0.30;0.05;;;-2.50;99.90;;;;;;21074422;28;20036;-43
2024/01/13 05:33:18;;;;;;;0.35;0.00;;;-2.60;99.90;;;;;;21071496;28;20448;-43
2024/01/13 05:43:20;;;;;;;0.10;0.00;;;-2.60;99.90;;;;;;21073283;28;20418;-45
2024/01/13 05:53:23;;;;;;;0.43;0.10;;;-2.50;99.90;;;;;;21069647;28;20044;-44
2024/01/13 06:03:25;;;;;;;0.50;0.10;;;-2.60;99.90;;;;;;21048466;28;20073;-43
2024/01/13 06:13:28;;;;;;;0.20;0.10;;;-2.40;99.90;;;;;;21063756;28;20040;-45
2024/01/13 06:23:30;;;;;;;0.32;0.10;;;-2.40;99.90;;;;;;21043248;28;20074;-43
2024/01/13 06:33:31;;;;;;;0.15;0.00;;;-2.60;99.90;;;;;;21062888;28;20059;-43
2024/01/13 06:43:33;;;;;;;0.28;0.10;;;-2.70;99.90;;;;;;21062469;28;20036;-43
2024/01/13 06:53:35;;;;;;;0.38;0.10;;;-2.90;99.90;;;;;;21062283;28;20028;-45
2024/01/13 07:03:37;;;;;;;4.60;1.55;;;-2.90;99.90;;;;;;21061164;28;20494;-43
2024/01/13 07:13:42;;;;;;;0.30;0.10;;;-2.80;99.90;;;;;;21066774;28;20105;-43
2024/01/13 07:23:44;;;;;;;0.20;0.10;;;-2.80;99.90;;;;;;21077236;28;20032;-43
2024/01/13 07:33:45;;;;;;;1.10;0.70;;;-2.60;99.90;;;;;;21077014;28;20040;-43
2024/01/13 07:43:47;;;;;;;0.10;0.10;;;-2.40;99.90;;;;;;21069189;28;20089;-43
2024/01/13 07:53:50;;;;;;;0.00;0.00;;;-2.20;99.90;;;;;;21075624;28;20048;-43
2024/01/13 08:03:52;;;;;;;0.28;0.00;;;-1.70;99.90;;;;;;21076141;28;20024;-42
2024/01/13 08:13:54;;;;;;;2.25;0.30;;;-1.00;99.90;;;;;;21075061;28;20093;-41
2024/01/13 08:23:56;;;;;;;0.05;0.00;;;-0.40;99.90;;;;;;21069148;28;20031;-43
2024/01/13 08:33:58;;;;;;;0.55;0.20;;;0.40;99.90;;;;;;21073401;28;20413;-45
2024/01/13 08:43:59;;;;;;;0.32;0.10;;;1.20;99.90;;;;;;21073454;28;20036;-45
2024/01/13 08:54:05;;;;;;;0.38;0.10;;;2.00;99.10;;;;;;21071108;28;20543;-44
2024/01/13 09:04:10;;;;;;;0.35;0.20;;;2.80;97.80;;;;;;21070510;28;20381;-40
2024/01/13 09:14:13;;;;;;;0.17;0.10;;;3.30;96.90;;;;;;21067139;28;20029;-41
2024/01/13 09:24:21;;;;;;;0.13;0.10;;;4.00;95.80;;;;;;21068123;28;20043;-41
2024/01/13 09:34:24;;;;;;;0.63;0.10;;;5.00;93.40;;;;;;21065000;28;20405;-41
2024/01/13 09:44:29;;;;;;;0.45;0.20;;;5.70;91.40;;;;;;21068631;28;20489;-45
2024/01/13 09:54:31;;;;;;;0.73;0.20;;;6.10;90.10;;;;;;21061464;28;20093;-44
2024/01/13 10:04:36;;;;;;;0.40;0.20;;;6.30;86.40;;;;;;21016711;28;20028;-42
2024/01/13 10:14:42;;;;;;;1.00;0.40;;;6.50;87.50;;;;;;21061529;28;20046;-44
2024/01/13 10:24:44;;;;;;;0.77;0.40;;;6.80;86.10;;;;;;21052731;28;20032;-43
2024/01/13 10:34:50;;;;;;;0.80;0.50;;;6.70;85.90;;;;;;21061877;28;20090;-44
2024/01/13 10:44:58;;;;;;;1.50;0.70;;;6.80;88.10;;;;;;21058228;28;20066;-44
2024/01/13 10:55:05;;;;;;;1.67;0.65;;;6.80;85.00;;;;;;21058629;28;20032;-44
2024/01/13 11:05:08;;;;;;;2.25;1.10;;;6.70;86.50;;;;;;21058918;28;20343;-41
2024/01/13 11:15:31;;;;;;;1.23;0.98;;;7.20;87.10;;;;;;21057824;28;20039;-44
2024/01/13 11:25:34;;;;;;;2.55;1.00;;;7.40;87.50;;;;;;21047361;28;20077;-44
2024/01/13 11:35:38;;;;;;;2.35;1.20;;;7.50;89.00;;;;;;21057747;28;20106;-44
2024/01/13 11:45:48;;;;;;;1.92;0.85;;;7.70;85.80;;;;;;21053690;28;20098;-43
2024/01/13 11:55:49;;;;;;;2.47;1.00;;;7.80;85.30;;;;;;21055335;28;20035;-43
2024/01/13 12:05:51;;;;;;;2.05;1.45;;;7.90;85.30;;;;;;21056731;28;20032;-43
2024/01/13 12:16:07;;;;;;;2.55;1.23;;;7.80;87.50;;;;;;21075926;28;20036;-43
2024/01/13 12:26:15;;;;;;;3.70;1.65;;;7.70;88.70;;;;;;21070476;28;20568;-42
2024/01/13 12:36:16;;;;;;;4.70;1.70;;;7.60;89.10;;;;;;21072868;28;20070;-41
2024/01/13 12:46:18;;;;;;;2.72;1.80;;;7.20;87.90;;;;;;21073076;28;20047;-41
2024/01/13 12:56:20;;;;;;;2.78;2.13;;;7.00;90.20;;;;;;21033108;28;20066;-43
2024/01/13 13:06:22;;;;;;;3.33;2.05;;;7.20;90.20;;;;;;21051038;28;20077;-45
2024/01/13 13:16:24;;;;;;;4.28;2.50;;;7.10;89.00;;;;;;21065278;28;20036;-44
2024/01/13 13:26:26;;;;;;;6.72;2.60;;;6.10;90.60;;;;;;21066097;28;20035;-44
2024/01/13 13:36:27;;;;;;;3.47;2.22;;;5.40;89.70;;;;;;21060176;28;20093;-43
2024/01/13 13:46:29;;;;;;;2.70;1.70;;;4.60;90.30;;;;;;21057791;28;20035;-46
2024/01/13 13:56:31;;;;;;;3.42;2.45;;;4.20;90.50;;;;;;21060851;28;20040;-42
2024/01/13 14:06:33;;;;;;;3.80;2.30;;;4.00;91.90;;;;;;21058209;28;20393;-43
2024/01/13 14:16:35;;;;;;;4.32;2.35;;;3.90;92.60;;;;;;21061247;28;20038;-44
2024/01/13 14:26:38;;;;;;;4.97;2.17;;;3.30;92.60;;;;;;21051406;28;20093;-43
2024/01/13 14:36:41;;;;;;;4.57;2.45;;;3.00;93.70;;;;;;21054509;28;20456;-44
2024/01/13 14:46:44;;;;;;;3.42;2.08;;;3.00;93.40;;;;;;21053629;28;20024;-43
2024/01/13 14:56:53;;;;;;;6.35;2.90;;;2.70;93.60;;;;;;21055233;28;20032;-43
2024/01/13 15:06:54;;;;;;;4.20;2.83;;;2.30;96.10;;;;;;21054362;28;20039;-47
2024/01/13 15:16:56;;;;;;;2.90;1.55;;;1.80;96.90;;;;;;21059227;28;20338;-44
2024/01/13 15:26:58;;;;;;;3.03;1.17;;;1.30;98.40;;;;;;21058443;28;20032;-47
2024/01/13 15:37:00;;;;;;;3.53;2.30;;;0.80;99.30;;;;;;21038417;28;20047;-44
2024/01/13 15:47:02;;;;;;;3.30;1.20;;;0.10;99.90;;;;;;21046477;28;20138;-44
2024/01/13 15:57:04;;;;;;;5.78;1.40;;;-0.50;99.90;;;;;;21066811;28;20040;-45
2024/01/13 16:07:06;;;;;;;2.13;1.00;;;-0.80;99.90;;;;;;21050964;28;20032;-44
2024/01/13 16:17:08;;;;;;;4.07;1.10;;;-0.90;99.90;;;;;;21067930;28;20650;-46
2024/01/13 16:27:09;;;;;;;1.65;0.80;;;-1.00;99.90;;;;;;21074043;28;20043;-44
2024/01/13 16:37:12;;;;;;;1.20;0.52;;;-1.20;99.90;;;;;;21044684;28;20181;-47
2024/01/13 16:47:13;;;;;;;2.38;0.60;;;-1.40;99.90;;;;;;21013590;28;20162;-45
2024/01/13 16:57:17;;;;;;;1.73;0.60;;;-1.80;99.90;;;;;;20945379;28;20062;-43
2024/01/13 17:07:21;;;;;;;0.95;0.47;;;-1.80;99.90;;;;;;21023580;28;20032;-44
2024/01/13 17:17:23;;;;;;;1.08;0.70;;;-1.80;99.90;;;;;;21051194;28;20097;-46
2024/01/13 17:27:27;;;;;;;1.27;0.80;;;-1.80;99.90;;;;;;20997995;28;20082;-44
2024/01/13 17:37:28;;;;;;;1.25;0.52;;;-1.90;99.90;;;;;;21044127;28;20109;-44
2024/01/13 17:47:35;;;;;;;1.63;0.75;;;-2.00;99.90;;;;;;21072237;28;20086;-45
2024/01/13 17:57:38;;;;;;;1.15;0.70;;;-2.20;99.90;;;;;;21070976;28;20440;-46
2024/01/13 18:07:40;;;;;;;1.00;0.38;;;-2.20;99.90;;;;;;21070760;28;20032;-45
2024/01/13 18:17:42;;;;;;;1.13;0.70;;;-2.20;99.90;;;;;;21070128;28;20100;-44
2024/01/13 18:27:44;;;;;;;1.65;0.60;;;-2.20;99.90;;;;;;21066474;28;20066;-44
2024/01/13 18:37:46;;;;;;;0.70;0.35;;;-2.40;99.90;;;;;;21068826;28;20044;-47
2024/01/13 18:47:49;;;;;;;2.38;0.52;;;-2.50;99.90;;;;;;21051145;28;20604;-46
2024/01/13 18:57:51;;;;;;;2.50;0.88;;;-2.60;99.90;;;;;;21068051;28;20093;-46
2024/01/13 19:07:53;;;;;;;1.17;0.70;;;-2.50;99.90;;;;;;21048821;28;20173;-47
2024/01/13 19:17:55;;;;;;;1.40;0.52;;;-2.60;99.90;;;;;;21049673;28;20085;-50
2024/01/13 19:27:58;;;;;;;1.33;0.40;;;-2.70;99.90;;;;;;21063264;28;20032;-47
2024/01/13 19:38:00;;;;;;;1.52;0.65;;;-2.90;99.90;;;;;;21011169;28;20414;-49
2024/01/13 19:48:02;;;;;;;1.38;0.73;;;-2.80;99.90;;;;;;20982661;28;20082;-44
2024/01/13 19:58:08;;;;;;;1.40;0.50;;;-2.90;99.90;;;;;;21064143;28;20061;-44
2024/01/13 20:08:09;;;;;;;1.00;0.40;;;-2.90;99.90;;;;;;21040418;28;20029;-46
2024/01/13 20:18:17;;;;;;;1.42;0.45;;;-3.10;99.90;;;;;;21006508;28;20037;-44
2024/01/13 20:28:20;;;;;;;0.70;0.32;;;-3.20;99.90;;;;;;20994742;28;20036;-44
2024/01/13 20:38:22;;;;;;;0.80;0.32;;;-3.10;99.90;;;;;;21057798;28;20056;-44
2024/01/13 20:48:27;;;;;;;0.65;0.25;;;-3.00;99.90;;;;;;21077765;28;20036;-44
2024/01/13 20:58:29;;;;;;;0.63;0.20;;;-3.10;99.90;;;;;;21075457;28;20036;-46
2024/01/13 21:08:30;;;;;;;1.55;0.60;;;-3.20;99.90;;;;;;21074629;28;20020;-45
2024/01/13 21:18:32;;;;;;;1.10;0.47;;;-3.00;99.90;;;;;;21046195;28;20024;-44
2024/01/13 21:28:34;;;;;;;1.30;0.57;;;-3.00;99.90;;;;;;21067925;28;20035;-44
2024/01/13 21:38:37;;;;;;;1.10;0.50;;;-3.00;99.90;;;;;;21043799;28;20048;-46
2024/01/13 21:48:39;;;;;;;0.77;0.22;;;-2.90;99.90;;;;;;21073137;28;20755;-44
2024/01/13 21:58:41;;;;;;;0.32;0.10;;;-3.10;99.90;;;;;;21071140;28;20048;-45
2024/01/13 22:08:43;;;;;;;0.28;0.10;;;-3.40;99.90;;;;;;21070724;28;20028;-44
2024/01/13 22:18:45;;;;;;;0.80;0.10;;;-3.60;99.90;;;;;;20998469;28;20663;-42
2024/01/13 22:28:46;;;;;;;0.22;0.10;;;-3.60;99.90;;;;;;20986664;28;20035;-43
2024/01/13 22:38:48;;;;;;;0.20;0.10;;;-3.60;99.90;;;;;;20953084;28;20098;-46
2024/01/13 22:48:53;;;;;;;0.22;0.03;;;-3.60;99.90;;;;;;20943459;28;20335;-41
2024/01/13 22:58:55;;;;;;;0.15;0.10;;;-3.70;99.90;;;;;;20950414;28;20157;-41
2024/01/13 23:08:57;;;;;;;0.52;0.03;;;-3.60;99.90;;;;;;21048110;28;20085;-48
2024/01/13 23:18:58;;;;;;;0.00;0.00;;;-3.60;99.90;;;;;;21040897;28;20032;-45
2024/01/13 23:29:00;;;;;;;0.03;0.00;;;-3.30;99.00;;;;;;21029990;28;20039;-45
2024/01/13 23:39:02;;;;;;;0.00;0.00;;;-3.20;99.20;;;;;;21048573;28;20044;-45
2024/01/13 23:49:06;;;;;;;0.10;0.00;;;-3.30;99.00;;;;;;20989421;28;20543;-45
2024/01/13 23:59:08;;;;;;;0.20;0.00;;;-3.20;99.20;;;;;;21058366;28;20093;-45
